sensor_id;sensor_type;location;lat;lon;timestamp;P1;durP1;ratioP1;P2;durP2;ratioP2
1380;SDS011;684;48.342;10.096;2023-07-20T00:01:46;6.83;;;1.77;;
1380;SDS011;684;48.342;10.096;2023-07-20T00:04:13;7.07;;;2.00;;
1380;SDS011;684;48.342;10.096;2023-07-20T00:06:40;7.43;;;2.17;;
1380;SDS011;684;48.342;10.096;2023-07-20T00:09:07;4.50;;;1.30;;
1380;SDS011;684;48.342;10.096;2023-07-20T00:11:35;4.20;;;1.50;;
1380;SDS011;684;48.342;10.096;2023-07-20T00:14:03;8.40;;;2.00;;
1380;SDS011;684;48.342;10.096;2023-07-20T00:16:30;5.37;;;1.40;;
1380;SDS011;684;48.342;10.096;2023-07-20T00:18:58;6.13;;;1.70;;
1380;SDS011;684;48.342;10.096;2023-07-20T00:21:25;5.23;;;1.77;;
1380;SDS011;684;48.342;10.096;2023-07-20T00:23:52;6.70;;;1.90;;
1380;SDS011;684;48.342;10.096;2023-07-20T00:26:19;6.20;;;1.70;;
1380;SDS011;684;48.342;10.096;2023-07-20T00:28:46;6.70;;;1.80;;
1380;SDS011;684;48.342;10.096;2023-07-20T00:31:12;6.80;;;1.77;;
1380;SDS011;684;48.342;10.096;2023-07-20T00:33:39;7.63;;;1.93;;
1380;SDS011;684;48.342;10.096;2023-07-20T00:36:08;9.20;;;1.90;;
1380;SDS011;684;48.342;10.096;2023-07-20T00:38:34;7.17;;;1.90;;
1380;SDS011;684;48.342;10.096;2023-07-20T00:41:01;7.30;;;1.53;;
1380;SDS011;684;48.342;10.096;2023-07-20T00:43:28;5.60;;;2.00;;
1380;SDS011;684;48.342;10.096;2023-07-20T00:45:54;5.93;;;1.97;;
1380;SDS011;684;48.342;10.096;2023-07-20T00:48:22;7.17;;;1.63;;
1380;SDS011;684;48.342;10.096;2023-07-20T00:50:49;5.23;;;1.40;;
1380;SDS011;684;48.342;10.096;2023-07-20T00:53:18;6.47;;;1.47;;
1380;SDS011;684;48.342;10.096;2023-07-20T00:55:45;8.93;;;2.77;;
1380;SDS011;684;48.342;10.096;2023-07-20T00:58:12;4.80;;;1.67;;
1380;SDS011;684;48.342;10.096;2023-07-20T01:00:38;6.87;;;2.13;;
1380;SDS011;684;48.342;10.096;2023-07-20T01:03:05;6.03;;;1.57;;
1380;SDS011;684;48.342;10.096;2023-07-20T01:05:34;5.53;;;1.83;;
1380;SDS011;684;48.342;10.096;2023-07-20T01:08:07;7.07;;;1.43;;
1380;SDS011;684;48.342;10.096;2023-07-20T01:10:44;5.47;;;2.03;;
1380;SDS011;684;48.342;10.096;2023-07-20T01:13:16;7.00;;;1.90;;
1380;SDS011;684;48.342;10.096;2023-07-20T01:15:48;5.73;;;2.10;;
1380;SDS011;684;48.342;10.096;2023-07-20T01:18:16;6.73;;;2.10;;
1380;SDS011;684;48.342;10.096;2023-07-20T01:20:43;5.97;;;2.40;;
1380;SDS011;684;48.342;10.096;2023-07-20T01:23:27;12.40;;;2.17;;
1380;SDS011;684;48.342;10.096;2023-07-20T01:26:10;6.30;;;1.97;;
1380;SDS011;684;48.342;10.096;2023-07-20T01:29:06;6.53;;;2.60;;
1380;SDS011;684;48.342;10.096;2023-07-20T01:31:47;6.53;;;2.57;;
1380;SDS011;684;48.342;10.096;2023-07-20T01:34:17;6.90;;;2.00;;
1380;SDS011;684;48.342;10.096;2023-07-20T01:36:45;6.27;;;2.53;;
1380;SDS011;684;48.342;10.096;2023-07-20T01:39:14;7.70;;;2.63;;
1380;SDS011;684;48.342;10.096;2023-07-20T01:41:41;7.97;;;2.17;;
1380;SDS011;684;48.342;10.096;2023-07-20T01:44:08;7.60;;;2.90;;
1380;SDS011;684;48.342;10.096;2023-07-20T01:46:35;7.87;;;2.10;;
1380;SDS011;684;48.342;10.096;2023-07-20T01:49:03;8.43;;;2.23;;
1380;SDS011;684;48.342;10.096;2023-07-20T01:51:30;5.80;;;2.53;;
1380;SDS011;684;48.342;10.096;2023-07-20T01:53:56;7.13;;;2.57;;
1380;SDS011;684;48.342;10.096;2023-07-20T01:56:23;6.90;;;2.50;;
1380;SDS011;684;48.342;10.096;2023-07-20T01:58:50;7.07;;;2.63;;
1380;SDS011;684;48.342;10.096;2023-07-20T02:01:16;8.20;;;2.20;;
1380;SDS011;684;48.342;10.096;2023-07-20T02:03:43;5.10;;;2.20;;
1380;SDS011;684;48.342;10.096;2023-07-20T02:06:11;7.53;;;2.17;;
1380;SDS011;684;48.342;10.096;2023-07-20T02:08:38;7.63;;;2.33;;
1380;SDS011;684;48.342;10.096;2023-07-20T02:11:04;5.10;;;2.00;;
1380;SDS011;684;48.342;10.096;2023-07-20T02:13:31;5.67;;;2.00;;
1380;SDS011;684;48.342;10.096;2023-07-20T02:15:58;6.63;;;2.70;;
1380;SDS011;684;48.342;10.096;2023-07-20T02:18:24;5.87;;;2.30;;
1380;SDS011;684;48.342;10.096;2023-07-20T02:20:52;6.30;;;2.57;;
1380;SDS011;684;48.342;10.096;2023-07-20T02:23:20;6.60;;;3.07;;
1380;SDS011;684;48.342;10.096;2023-07-20T02:25:47;5.43;;;1.70;;
1380;SDS011;684;48.342;10.096;2023-07-20T02:28:14;7.90;;;2.37;;
1380;SDS011;684;48.342;10.096;2023-07-20T02:30:41;5.33;;;2.00;;
1380;SDS011;684;48.342;10.096;2023-07-20T02:33:08;6.70;;;2.60;;
1380;SDS011;684;48.342;10.096;2023-07-20T02:35:34;9.63;;;2.43;;
1380;SDS011;684;48.342;10.096;2023-07-20T02:38:01;5.90;;;2.17;;
1380;SDS011;684;48.342;10.096;2023-07-20T02:40:29;6.53;;;2.60;;
1380;SDS011;684;48.342;10.096;2023-07-20T02:42:56;6.17;;;2.47;;
1380;SDS011;684;48.342;10.096;2023-07-20T02:45:23;4.83;;;2.23;;
1380;SDS011;684;48.342;10.096;2023-07-20T02:47:49;8.87;;;2.90;;
1380;SDS011;684;48.342;10.096;2023-07-20T02:50:16;5.57;;;2.33;;
1380;SDS011;684;48.342;10.096;2023-07-20T02:52:43;7.40;;;2.70;;
1380;SDS011;684;48.342;10.096;2023-07-20T02:55:10;5.60;;;2.17;;
1380;SDS011;684;48.342;10.096;2023-07-20T02:57:38;6.20;;;2.33;;
1380;SDS011;684;48.342;10.096;2023-07-20T03:00:05;6.30;;;2.60;;
1380;SDS011;684;48.342;10.096;2023-07-20T03:02:33;7.93;;;2.20;;
1380;SDS011;684;48.342;10.096;2023-07-20T03:05:00;6.40;;;2.33;;
1380;SDS011;684;48.342;10.096;2023-07-20T03:07:30;5.47;;;2.20;;
1380;SDS011;684;48.342;10.096;2023-07-20T03:09:57;8.13;;;2.70;;
1380;SDS011;684;48.342;10.096;2023-07-20T03:12:24;7.87;;;2.40;;
1380;SDS011;684;48.342;10.096;2023-07-20T03:14:52;5.47;;;2.27;;
1380;SDS011;684;48.342;10.096;2023-07-20T03:17:19;5.97;;;2.30;;
1380;SDS011;684;48.342;10.096;2023-07-20T03:19:46;7.83;;;2.60;;
1380;SDS011;684;48.342;10.096;2023-07-20T03:22:13;8.93;;;3.20;;
1380;SDS011;684;48.342;10.096;2023-07-20T03:24:39;6.60;;;2.63;;
1380;SDS011;684;48.342;10.096;2023-07-20T03:27:06;9.33;;;3.10;;
1380;SDS011;684;48.342;10.096;2023-07-20T03:29:33;5.43;;;2.57;;
1380;SDS011;684;48.342;10.096;2023-07-20T03:32:01;7.30;;;2.93;;
1380;SDS011;684;48.342;10.096;2023-07-20T03:34:28;6.67;;;2.60;;
1380;SDS011;684;48.342;10.096;2023-07-20T03:36:54;5.80;;;2.80;;
1380;SDS011;684;48.342;10.096;2023-07-20T03:39:21;12.83;;;3.87;;
1380;SDS011;684;48.342;10.096;2023-07-20T03:41:48;5.23;;;2.40;;
1380;SDS011;684;48.342;10.096;2023-07-20T03:44:15;6.10;;;2.70;;
1380;SDS011;684;48.342;10.096;2023-07-20T03:46:42;8.30;;;2.73;;
1380;SDS011;684;48.342;10.096;2023-07-20T03:49:10;7.03;;;2.90;;
1380;SDS011;684;48.342;10.096;2023-07-20T03:51:37;9.23;;;3.07;;
1380;SDS011;684;48.342;10.096;2023-07-20T03:54:04;10.20;;;3.93;;
1380;SDS011;684;48.342;10.096;2023-07-20T03:56:31;8.37;;;2.90;;
1380;SDS011;684;48.342;10.096;2023-07-20T03:59:00;8.20;;;2.60;;
1380;SDS011;684;48.342;10.096;2023-07-20T04:01:27;6.77;;;2.70;;
1380;SDS011;684;48.342;10.096;2023-07-20T04:03:53;7.80;;;2.93;;
1380;SDS011;684;48.342;10.096;2023-07-20T04:06:22;6.73;;;2.47;;
1380;SDS011;684;48.342;10.096;2023-07-20T04:08:49;8.23;;;2.83;;
1380;SDS011;684;48.342;10.096;2023-07-20T04:11:15;6.40;;;2.87;;
1380;SDS011;684;48.342;10.096;2023-07-20T04:13:42;6.07;;;3.23;;
1380;SDS011;684;48.342;10.096;2023-07-20T04:16:09;8.37;;;2.53;;
1380;SDS011;684;48.342;10.096;2023-07-20T04:18:35;6.87;;;3.50;;
1380;SDS011;684;48.342;10.096;2023-07-20T04:21:02;6.17;;;3.00;;
1380;SDS011;684;48.342;10.096;2023-07-20T04:23:30;7.13;;;2.97;;
1380;SDS011;684;48.342;10.096;2023-07-20T04:25:57;6.27;;;2.63;;
1380;SDS011;684;48.342;10.096;2023-07-20T04:28:23;9.00;;;3.43;;
1380;SDS011;684;48.342;10.096;2023-07-20T04:30:50;6.73;;;3.27;;
1380;SDS011;684;48.342;10.096;2023-07-20T04:33:18;9.10;;;3.20;;
1380;SDS011;684;48.342;10.096;2023-07-20T04:35:46;7.60;;;2.87;;
1380;SDS011;684;48.342;10.096;2023-07-20T04:38:16;8.00;;;3.43;;
1380;SDS011;684;48.342;10.096;2023-07-20T04:40:45;6.03;;;2.47;;
1380;SDS011;684;48.342;10.096;2023-07-20T04:43:12;6.27;;;2.97;;
1380;SDS011;684;48.342;10.096;2023-07-20T04:45:39;10.40;;;3.70;;
1380;SDS011;684;48.342;10.096;2023-07-20T04:48:09;7.40;;;3.00;;
1380;SDS011;684;48.342;10.096;2023-07-20T04:50:38;7.87;;;3.30;;
1380;SDS011;684;48.342;10.096;2023-07-20T04:53:06;7.00;;;2.97;;
1380;SDS011;684;48.342;10.096;2023-07-20T04:55:33;7.17;;;3.30;;
1380;SDS011;684;48.342;10.096;2023-07-20T04:58:02;6.53;;;2.50;;
1380;SDS011;684;48.342;10.096;2023-07-20T05:00:29;7.83;;;2.70;;
1380;SDS011;684;48.342;10.096;2023-07-20T05:02:56;7.80;;;2.90;;
1380;SDS011;684;48.342;10.096;2023-07-20T05:05:23;7.10;;;2.67;;
1380;SDS011;684;48.342;10.096;2023-07-20T05:07:50;6.40;;;3.17;;
1380;SDS011;684;48.342;10.096;2023-07-20T05:10:17;6.00;;;2.43;;
1380;SDS011;684;48.342;10.096;2023-07-20T05:12:44;5.80;;;3.03;;
1380;SDS011;684;48.342;10.096;2023-07-20T05:15:12;5.90;;;2.67;;
1380;SDS011;684;48.342;10.096;2023-07-20T05:17:38;7.97;;;2.30;;
1380;SDS011;684;48.342;10.096;2023-07-20T05:20:05;6.33;;;2.53;;
1380;SDS011;684;48.342;10.096;2023-07-20T05:22:34;5.50;;;2.60;;
1380;SDS011;684;48.342;10.096;2023-07-20T05:25:01;8.40;;;2.73;;
1380;SDS011;684;48.342;10.096;2023-07-20T05:27:28;7.20;;;2.80;;
1380;SDS011;684;48.342;10.096;2023-07-20T05:29:55;7.53;;;3.20;;
1380;SDS011;684;48.342;10.096;2023-07-20T05:32:23;8.07;;;2.47;;
1380;SDS011;684;48.342;10.096;2023-07-20T05:34:51;6.60;;;2.37;;
1380;SDS011;684;48.342;10.096;2023-07-20T05:37:19;5.70;;;2.77;;
1380;SDS011;684;48.342;10.096;2023-07-20T05:39:45;6.50;;;2.40;;
1380;SDS011;684;48.342;10.096;2023-07-20T05:42:12;5.97;;;2.20;;
1380;SDS011;684;48.342;10.096;2023-07-20T05:44:39;6.37;;;2.70;;
1380;SDS011;684;48.342;10.096;2023-07-20T05:47:07;6.37;;;2.50;;
1380;SDS011;684;48.342;10.096;2023-07-20T05:49:35;5.90;;;2.47;;
1380;SDS011;684;48.342;10.096;2023-07-20T05:52:02;6.60;;;2.80;;
1380;SDS011;684;48.342;10.096;2023-07-20T05:54:28;5.80;;;2.50;;
1380;SDS011;684;48.342;10.096;2023-07-20T05:56:55;5.60;;;2.60;;
1380;SDS011;684;48.342;10.096;2023-07-20T05:59:22;7.37;;;2.90;;
1380;SDS011;684;48.342;10.096;2023-07-20T06:01:49;7.30;;;2.37;;
1380;SDS011;684;48.342;10.096;2023-07-20T06:04:15;7.60;;;2.30;;
1380;SDS011;684;48.342;10.096;2023-07-20T06:06:43;9.40;;;2.63;;
1380;SDS011;684;48.342;10.096;2023-07-20T06:09:11;6.60;;;2.33;;
1380;SDS011;684;48.342;10.096;2023-07-20T06:11:38;6.30;;;3.13;;
1380;SDS011;684;48.342;10.096;2023-07-20T06:14:05;7.60;;;2.90;;
1380;SDS011;684;48.342;10.096;2023-07-20T06:16:32;9.73;;;3.10;;
1380;SDS011;684;48.342;10.096;2023-07-20T06:18:59;5.73;;;2.50;;
1380;SDS011;684;48.342;10.096;2023-07-20T06:21:26;5.97;;;2.67;;
1380;SDS011;684;48.342;10.096;2023-07-20T06:23:54;9.57;;;2.43;;
1380;SDS011;684;48.342;10.096;2023-07-20T06:26:20;7.30;;;2.60;;
1380;SDS011;684;48.342;10.096;2023-07-20T06:28:47;6.00;;;2.63;;
1380;SDS011;684;48.342;10.096;2023-07-20T06:31:14;8.23;;;2.40;;
1380;SDS011;684;48.342;10.096;2023-07-20T06:33:40;6.83;;;2.50;;
1380;SDS011;684;48.342;10.096;2023-07-20T06:36:07;5.70;;;2.63;;
1380;SDS011;684;48.342;10.096;2023-07-20T06:38:34;7.07;;;2.80;;
1380;SDS011;684;48.342;10.096;2023-07-20T06:41:02;8.30;;;2.47;;
1380;SDS011;684;48.342;10.096;2023-07-20T06:43:29;8.13;;;3.10;;
1380;SDS011;684;48.342;10.096;2023-07-20T06:45:56;6.20;;;2.40;;
1380;SDS011;684;48.342;10.096;2023-07-20T06:48:22;8.37;;;3.10;;
1380;SDS011;684;48.342;10.096;2023-07-20T06:50:49;6.90;;;2.30;;
1380;SDS011;684;48.342;10.096;2023-07-20T06:53:16;5.40;;;2.60;;
1380;SDS011;684;48.342;10.096;2023-07-20T06:55:43;7.60;;;2.67;;
1380;SDS011;684;48.342;10.096;2023-07-20T06:58:11;7.20;;;2.67;;
1380;SDS011;684;48.342;10.096;2023-07-20T07:00:38;9.47;;;2.93;;
1380;SDS011;684;48.342;10.096;2023-07-20T07:03:05;7.10;;;2.50;;
1380;SDS011;684;48.342;10.096;2023-07-20T07:05:34;5.10;;;2.40;;
1380;SDS011;684;48.342;10.096;2023-07-20T07:08:02;6.97;;;2.10;;
1380;SDS011;684;48.342;10.096;2023-07-20T07:10:29;5.77;;;2.40;;
1380;SDS011;684;48.342;10.096;2023-07-20T07:12:56;7.83;;;2.83;;
1380;SDS011;684;48.342;10.096;2023-07-20T07:15:24;6.43;;;2.23;;
1380;SDS011;684;48.342;10.096;2023-07-20T07:17:51;5.27;;;2.47;;
1380;SDS011;684;48.342;10.096;2023-07-20T07:20:18;5.90;;;2.57;;
1380;SDS011;684;48.342;10.096;2023-07-20T07:22:45;6.63;;;2.50;;
1380;SDS011;684;48.342;10.096;2023-07-20T07:25:11;11.53;;;2.70;;
1380;SDS011;684;48.342;10.096;2023-07-20T07:27:38;6.70;;;2.60;;
1380;SDS011;684;48.342;10.096;2023-07-20T07:30:05;5.70;;;2.43;;
1380;SDS011;684;48.342;10.096;2023-07-20T07:32:34;8.07;;;3.37;;
1380;SDS011;684;48.342;10.096;2023-07-20T07:35:01;6.63;;;2.20;;
1380;SDS011;684;48.342;10.096;2023-07-20T07:37:27;5.30;;;2.10;;
1380;SDS011;684;48.342;10.096;2023-07-20T07:39:54;4.80;;;2.03;;
1380;SDS011;684;48.342;10.096;2023-07-20T07:42:21;5.60;;;1.87;;
1380;SDS011;684;48.342;10.096;2023-07-20T07:44:48;5.70;;;1.90;;
1380;SDS011;684;48.342;10.096;2023-07-20T07:47:15;5.80;;;2.13;;
1380;SDS011;684;48.342;10.096;2023-07-20T07:49:43;4.80;;;2.00;;
1380;SDS011;684;48.342;10.096;2023-07-20T07:52:09;5.30;;;1.90;;
1380;SDS011;684;48.342;10.096;2023-07-20T07:54:36;4.87;;;1.60;;
1380;SDS011;684;48.342;10.096;2023-07-20T07:57:03;4.80;;;1.87;;
1380;SDS011;684;48.342;10.096;2023-07-20T07:59:30;6.90;;;1.57;;
1380;SDS011;684;48.342;10.096;2023-07-20T08:02:01;4.13;;;1.70;;
1380;SDS011;684;48.342;10.096;2023-07-20T08:04:28;4.50;;;2.13;;
1380;SDS011;684;48.342;10.096;2023-07-20T08:06:56;5.17;;;1.60;;
1380;SDS011;684;48.342;10.096;2023-07-20T08:09:24;4.73;;;1.90;;
1380;SDS011;684;48.342;10.096;2023-07-20T08:11:50;4.80;;;1.63;;
1380;SDS011;684;48.342;10.096;2023-07-20T08:14:17;5.50;;;2.07;;
1380;SDS011;684;48.342;10.096;2023-07-20T08:16:45;5.43;;;1.97;;
1380;SDS011;684;48.342;10.096;2023-07-20T08:19:12;4.67;;;1.90;;
1380;SDS011;684;48.342;10.096;2023-07-20T08:21:39;4.00;;;1.90;;
1380;SDS011;684;48.342;10.096;2023-07-20T08:24:07;4.60;;;2.00;;
1380;SDS011;684;48.342;10.096;2023-07-20T08:26:34;7.23;;;1.80;;
1380;SDS011;684;48.342;10.096;2023-07-20T08:29:00;4.40;;;1.67;;
1380;SDS011;684;48.342;10.096;2023-07-20T08:31:27;4.10;;;1.70;;
1380;SDS011;684;48.342;10.096;2023-07-20T08:33:54;6.57;;;1.70;;
1380;SDS011;684;48.342;10.096;2023-07-20T08:36:21;4.50;;;1.73;;
1380;SDS011;684;48.342;10.096;2023-07-20T08:38:48;6.30;;;2.03;;
1380;SDS011;684;48.342;10.096;2023-07-20T08:41:16;4.63;;;1.70;;
1380;SDS011;684;48.342;10.096;2023-07-20T08:43:43;3.90;;;1.50;;
1380;SDS011;684;48.342;10.096;2023-07-20T08:46:12;4.87;;;2.20;;
1380;SDS011;684;48.342;10.096;2023-07-20T08:48:39;4.43;;;2.07;;
1380;SDS011;684;48.342;10.096;2023-07-20T08:51:08;4.03;;;1.80;;
1380;SDS011;684;48.342;10.096;2023-07-20T08:53:36;3.77;;;1.80;;
1380;SDS011;684;48.342;10.096;2023-07-20T08:56:03;3.87;;;1.70;;
1380;SDS011;684;48.342;10.096;2023-07-20T08:58:32;4.00;;;1.90;;
1380;SDS011;684;48.342;10.096;2023-07-20T09:01:01;3.83;;;1.70;;
1380;SDS011;684;48.342;10.096;2023-07-20T09:03:29;4.40;;;2.17;;
1380;SDS011;684;48.342;10.096;2023-07-20T09:05:55;4.40;;;1.87;;
1380;SDS011;684;48.342;10.096;2023-07-20T09:08:23;4.50;;;1.80;;
1380;SDS011;684;48.342;10.096;2023-07-20T09:10:49;4.40;;;1.60;;
1380;SDS011;684;48.342;10.096;2023-07-20T09:13:16;4.23;;;1.73;;
1380;SDS011;684;48.342;10.096;2023-07-20T09:15:46;4.90;;;2.10;;
1380;SDS011;684;48.342;10.096;2023-07-20T09:18:23;4.57;;;1.80;;
1380;SDS011;684;48.342;10.096;2023-07-20T09:20:50;4.30;;;1.53;;
1380;SDS011;684;48.342;10.096;2023-07-20T09:23:17;4.00;;;1.77;;
1380;SDS011;684;48.342;10.096;2023-07-20T09:25:44;5.60;;;1.50;;
1380;SDS011;684;48.342;10.096;2023-07-20T09:28:15;4.37;;;1.83;;
1380;SDS011;684;48.342;10.096;2023-07-20T09:30:42;4.07;;;1.53;;
1380;SDS011;684;48.342;10.096;2023-07-20T09:33:12;3.60;;;1.53;;
1380;SDS011;684;48.342;10.096;2023-07-20T09:35:44;3.67;;;1.60;;
1380;SDS011;684;48.342;10.096;2023-07-20T09:38:11;3.70;;;1.57;;
1380;SDS011;684;48.342;10.096;2023-07-20T09:40:38;4.27;;;1.97;;
1380;SDS011;684;48.342;10.096;2023-07-20T09:43:07;4.30;;;1.70;;
1380;SDS011;684;48.342;10.096;2023-07-20T09:45:34;5.50;;;1.90;;
1380;SDS011;684;48.342;10.096;2023-07-20T09:48:05;5.90;;;2.27;;
1380;SDS011;684;48.342;10.096;2023-07-20T09:50:34;5.80;;;2.30;;
1380;SDS011;684;48.342;10.096;2023-07-20T09:53:05;4.97;;;1.87;;
1380;SDS011;684;48.342;10.096;2023-07-20T09:55:33;4.20;;;2.03;;
1380;SDS011;684;48.342;10.096;2023-07-20T09:58:01;6.00;;;2.10;;
1380;SDS011;684;48.342;10.096;2023-07-20T10:00:28;4.73;;;1.70;;
1380;SDS011;684;48.342;10.096;2023-07-20T10:02:55;7.23;;;1.77;;
1380;SDS011;684;48.342;10.096;2023-07-20T10:05:24;4.10;;;1.47;;
1380;SDS011;684;48.342;10.096;2023-07-20T10:07:55;5.30;;;1.80;;
1380;SDS011;684;48.342;10.096;2023-07-20T10:10:22;4.43;;;1.50;;
1380;SDS011;684;48.342;10.096;2023-07-20T10:12:49;5.40;;;2.03;;
1380;SDS011;684;48.342;10.096;2023-07-20T10:15:18;4.10;;;2.00;;
1380;SDS011;684;48.342;10.096;2023-07-20T10:17:48;4.53;;;1.83;;
1380;SDS011;684;48.342;10.096;2023-07-20T10:20:23;7.33;;;1.80;;
1380;SDS011;684;48.342;10.096;2023-07-20T10:22:52;4.50;;;1.77;;
1380;SDS011;684;48.342;10.096;2023-07-20T10:25:22;5.40;;;1.90;;
1380;SDS011;684;48.342;10.096;2023-07-20T10:27:49;5.70;;;1.87;;
1380;SDS011;684;48.342;10.096;2023-07-20T10:30:16;5.50;;;1.70;;
1380;SDS011;684;48.342;10.096;2023-07-20T10:32:44;5.77;;;1.67;;
1380;SDS011;684;48.342;10.096;2023-07-20T10:35:12;5.70;;;1.97;;
1380;SDS011;684;48.342;10.096;2023-07-20T10:37:49;7.90;;;2.20;;
1380;SDS011;684;48.342;10.096;2023-07-20T10:40:26;5.57;;;2.40;;
1380;SDS011;684;48.342;10.096;2023-07-20T10:43:00;4.03;;;1.50;;
1380;SDS011;684;48.342;10.096;2023-07-20T10:45:33;4.90;;;1.87;;
1380;SDS011;684;48.342;10.096;2023-07-20T10:48:02;5.43;;;2.10;;
1380;SDS011;684;48.342;10.096;2023-07-20T10:50:30;4.33;;;1.83;;
1380;SDS011;684;48.342;10.096;2023-07-20T10:53:09;5.73;;;2.13;;
1380;SDS011;684;48.342;10.096;2023-07-20T10:55:38;6.90;;;2.80;;
1380;SDS011;684;48.342;10.096;2023-07-20T10:58:06;4.37;;;1.93;;
1380;SDS011;684;48.342;10.096;2023-07-20T11:00:34;6.33;;;1.90;;
1380;SDS011;684;48.342;10.096;2023-07-20T11:03:01;6.00;;;1.90;;
1380;SDS011;684;48.342;10.096;2023-07-20T11:05:31;4.80;;;1.70;;
1380;SDS011;684;48.342;10.096;2023-07-20T11:08:06;4.80;;;2.20;;
1380;SDS011;684;48.342;10.096;2023-07-20T11:10:36;6.20;;;1.77;;
1380;SDS011;684;48.342;10.096;2023-07-20T11:13:17;6.03;;;2.00;;
1380;SDS011;684;48.342;10.096;2023-07-20T11:15:46;5.90;;;2.27;;
1380;SDS011;684;48.342;10.096;2023-07-20T11:18:14;5.00;;;1.97;;
1380;SDS011;684;48.342;10.096;2023-07-20T11:20:41;7.93;;;2.37;;
1380;SDS011;684;48.342;10.096;2023-07-20T11:23:08;4.87;;;1.90;;
1380;SDS011;684;48.342;10.096;2023-07-20T11:25:36;6.40;;;2.53;;
1380;SDS011;684;48.342;10.096;2023-07-20T11:28:08;7.00;;;2.00;;
1380;SDS011;684;48.342;10.096;2023-07-20T11:30:36;9.97;;;2.00;;
1380;SDS011;684;48.342;10.096;2023-07-20T11:33:03;6.43;;;2.20;;
1380;SDS011;684;48.342;10.096;2023-07-20T11:35:30;7.07;;;2.20;;
1380;SDS011;684;48.342;10.096;2023-07-20T11:38:01;4.77;;;1.77;;
1380;SDS011;684;48.342;10.096;2023-07-20T11:40:28;5.17;;;2.10;;
1380;SDS011;684;48.342;10.096;2023-07-20T11:42:56;5.40;;;2.10;;
1380;SDS011;684;48.342;10.096;2023-07-20T11:45:23;5.07;;;2.10;;
1380;SDS011;684;48.342;10.096;2023-07-20T11:47:52;5.47;;;2.30;;
1380;SDS011;684;48.342;10.096;2023-07-20T11:50:19;4.40;;;1.83;;
1380;SDS011;684;48.342;10.096;2023-07-20T11:52:46;5.77;;;2.07;;
1380;SDS011;684;48.342;10.096;2023-07-20T11:55:13;5.13;;;1.90;;
1380;SDS011;684;48.342;10.096;2023-07-20T11:57:39;4.73;;;1.80;;
1380;SDS011;684;48.342;10.096;2023-07-20T12:00:09;4.40;;;2.03;;
1380;SDS011;684;48.342;10.096;2023-07-20T12:02:37;6.27;;;2.47;;
1380;SDS011;684;48.342;10.096;2023-07-20T12:05:05;4.47;;;2.00;;
1380;SDS011;684;48.342;10.096;2023-07-20T12:07:35;6.50;;;2.77;;
1380;SDS011;684;48.342;10.096;2023-07-20T12:10:04;5.13;;;2.53;;
1380;SDS011;684;48.342;10.096;2023-07-20T12:12:32;6.67;;;1.97;;
1380;SDS011;684;48.342;10.096;2023-07-20T12:15:13;7.73;;;2.60;;
1380;SDS011;684;48.342;10.096;2023-07-20T12:17:41;4.80;;;1.83;;
1380;SDS011;684;48.342;10.096;2023-07-20T12:20:10;5.90;;;2.50;;
1380;SDS011;684;48.342;10.096;2023-07-20T12:22:38;8.63;;;2.00;;
1380;SDS011;684;48.342;10.096;2023-07-20T12:25:06;6.43;;;2.33;;
1380;SDS011;684;48.342;10.096;2023-07-20T12:27:33;5.63;;;1.90;;
1380;SDS011;684;48.342;10.096;2023-07-20T12:30:01;8.33;;;2.30;;
1380;SDS011;684;48.342;10.096;2023-07-20T12:32:30;4.40;;;2.00;;
1380;SDS011;684;48.342;10.096;2023-07-20T12:34:57;5.30;;;1.90;;
1380;SDS011;684;48.342;10.096;2023-07-20T12:37:25;6.43;;;2.40;;
1380;SDS011;684;48.342;10.096;2023-07-20T12:39:52;4.90;;;2.40;;
1380;SDS011;684;48.342;10.096;2023-07-20T12:42:18;4.20;;;1.90;;
1380;SDS011;684;48.342;10.096;2023-07-20T12:44:45;5.40;;;2.17;;
1380;SDS011;684;48.342;10.096;2023-07-20T12:47:12;5.73;;;2.20;;
1380;SDS011;684;48.342;10.096;2023-07-20T12:49:40;5.67;;;2.20;;
1380;SDS011;684;48.342;10.096;2023-07-20T12:52:10;4.67;;;1.87;;
1380;SDS011;684;48.342;10.096;2023-07-20T12:54:36;10.40;;;2.20;;
1380;SDS011;684;48.342;10.096;2023-07-20T12:57:03;7.77;;;2.17;;
1380;SDS011;684;48.342;10.096;2023-07-20T12:59:30;4.50;;;1.90;;
1380;SDS011;684;48.342;10.096;2023-07-20T13:01:57;7.00;;;1.97;;
1380;SDS011;684;48.342;10.096;2023-07-20T13:04:24;6.60;;;2.30;;
1380;SDS011;684;48.342;10.096;2023-07-20T13:06:52;5.00;;;2.23;;
1380;SDS011;684;48.342;10.096;2023-07-20T13:09:19;6.50;;;2.90;;
1380;SDS011;684;48.342;10.096;2023-07-20T13:11:46;8.13;;;2.43;;
1380;SDS011;684;48.342;10.096;2023-07-20T13:14:13;6.90;;;1.93;;
1380;SDS011;684;48.342;10.096;2023-07-20T13:16:39;4.40;;;2.00;;
1380;SDS011;684;48.342;10.096;2023-07-20T13:19:06;6.53;;;1.93;;
1380;SDS011;684;48.342;10.096;2023-07-20T13:21:33;6.90;;;2.10;;
1380;SDS011;684;48.342;10.096;2023-07-20T13:24:01;4.90;;;1.80;;
1380;SDS011;684;48.342;10.096;2023-07-20T13:26:29;4.87;;;1.90;;
1380;SDS011;684;48.342;10.096;2023-07-20T13:28:56;5.57;;;2.43;;
1380;SDS011;684;48.342;10.096;2023-07-20T13:31:23;8.40;;;2.30;;
1380;SDS011;684;48.342;10.096;2023-07-20T13:33:49;4.90;;;1.90;;
1380;SDS011;684;48.342;10.096;2023-07-20T13:36:18;4.60;;;1.90;;
1380;SDS011;684;48.342;10.096;2023-07-20T13:38:45;5.80;;;2.27;;
1380;SDS011;684;48.342;10.096;2023-07-20T13:41:15;4.83;;;2.20;;
1380;SDS011;684;48.342;10.096;2023-07-20T13:43:42;6.03;;;2.27;;
1380;SDS011;684;48.342;10.096;2023-07-20T13:46:09;4.73;;;1.90;;
1380;SDS011;684;48.342;10.096;2023-07-20T13:48:35;5.13;;;2.00;;
1380;SDS011;684;48.342;10.096;2023-07-20T13:51:02;4.10;;;1.57;;
1380;SDS011;684;48.342;10.096;2023-07-20T13:53:29;4.63;;;2.00;;
1380;SDS011;684;48.342;10.096;2023-07-20T13:55:56;5.43;;;1.73;;
1380;SDS011;684;48.342;10.096;2023-07-20T13:58:24;6.37;;;2.10;;
1380;SDS011;684;48.342;10.096;2023-07-20T14:00:51;5.70;;;1.80;;
1380;SDS011;684;48.342;10.096;2023-07-20T14:03:18;6.90;;;2.43;;
1380;SDS011;684;48.342;10.096;2023-07-20T14:05:44;5.70;;;2.17;;
1380;SDS011;684;48.342;10.096;2023-07-20T14:08:11;5.10;;;1.87;;
1380;SDS011;684;48.342;10.096;2023-07-20T14:10:38;4.00;;;1.33;;
1380;SDS011;684;48.342;10.096;2023-07-20T14:13:04;4.83;;;1.97;;
1380;SDS011;684;48.342;10.096;2023-07-20T14:15:33;5.00;;;2.03;;
1380;SDS011;684;48.342;10.096;2023-07-20T14:18:01;5.80;;;2.10;;
1380;SDS011;684;48.342;10.096;2023-07-20T14:20:27;5.40;;;1.90;;
1380;SDS011;684;48.342;10.096;2023-07-20T14:22:54;4.70;;;2.00;;
1380;SDS011;684;48.342;10.096;2023-07-20T14:25:21;4.60;;;1.93;;
1380;SDS011;684;48.342;10.096;2023-07-20T14:27:47;4.60;;;2.10;;
1380;SDS011;684;48.342;10.096;2023-07-20T14:30:14;5.43;;;2.17;;
1380;SDS011;684;48.342;10.096;2023-07-20T14:32:42;4.33;;;2.00;;
1380;SDS011;684;48.342;10.096;2023-07-20T14:35:09;6.17;;;1.90;;
1380;SDS011;684;48.342;10.096;2023-07-20T14:37:36;5.90;;;2.20;;
1380;SDS011;684;48.342;10.096;2023-07-20T14:40:03;5.83;;;2.30;;
1380;SDS011;684;48.342;10.096;2023-07-20T14:42:31;4.90;;;2.07;;
1380;SDS011;684;48.342;10.096;2023-07-20T14:44:58;5.23;;;1.90;;
1380;SDS011;684;48.342;10.096;2023-07-20T14:47:25;5.33;;;1.97;;
1380;SDS011;684;48.342;10.096;2023-07-20T14:49:53;5.77;;;2.20;;
1380;SDS011;684;48.342;10.096;2023-07-20T14:52:19;5.53;;;2.27;;
1380;SDS011;684;48.342;10.096;2023-07-20T14:54:46;5.97;;;1.90;;
1380;SDS011;684;48.342;10.096;2023-07-20T14:57:13;8.90;;;2.17;;
1380;SDS011;684;48.342;10.096;2023-07-20T14:59:40;6.70;;;2.93;;
1380;SDS011;684;48.342;10.096;2023-07-20T15:02:08;7.70;;;2.10;;
1380;SDS011;684;48.342;10.096;2023-07-20T15:04:35;5.20;;;2.30;;
1380;SDS011;684;48.342;10.096;2023-07-20T15:07:04;5.70;;;2.20;;
1380;SDS011;684;48.342;10.096;2023-07-20T15:09:31;4.87;;;2.07;;
1380;SDS011;684;48.342;10.096;2023-07-20T15:11:58;6.57;;;2.30;;
1380;SDS011;684;48.342;10.096;2023-07-20T15:14:26;6.40;;;2.23;;
1380;SDS011;684;48.342;10.096;2023-07-20T15:16:52;6.07;;;2.53;;
1380;SDS011;684;48.342;10.096;2023-07-20T15:19:19;5.80;;;2.00;;